createdAt,value
2024-01-10T00:02:14.592Z,-7.17
2024-01-10T00:07:16.394Z,-7.27
2024-01-10T00:12:18.087Z,-7.38
2024-01-10T00:17:19.870Z,-7.40
2024-01-10T00:22:21.563Z,-7.26
2024-01-10T00:27:23.205Z,-7.45
2024-01-10T00:32:24.943Z,-7.41
2024-01-10T00:37:28.206Z,-7.35
2024-01-10T00:42:29.839Z,-7.55
2024-01-10T00:47:31.491Z,-7.51
2024-01-10T00:52:33.212Z,-7.53
2024-01-10T00:57:35.038Z,-7.47
2024-01-10T01:02:36.746Z,-7.57
2024-01-10T01:07:38.580Z,-7.59
2024-01-10T01:12:40.899Z,-7.68
2024-01-10T01:17:42.604Z,-7.73
2024-01-10T01:22:44.342Z,-7.52
2024-01-10T01:27:45.929Z,-7.35
2024-01-10T01:32:47.660Z,-7.59
2024-01-10T01:37:49.944Z,-7.34
2024-01-10T01:42:51.604Z,-7.21
2024-01-10T01:47:53.345Z,-7.51
2024-01-10T01:52:55.083Z,-7.24
2024-01-10T01:57:56.836Z,-7.60
2024-01-10T02:03:00.093Z,-7.47
2024-01-10T02:08:01.862Z,-7.92
2024-01-10T02:13:03.640Z,-8.28
2024-01-10T02:18:06.981Z,-8.04
2024-01-10T02:23:08.844Z,-7.77
2024-01-10T02:28:10.540Z,-8.48
2024-01-10T02:33:12.275Z,-7.91
2024-01-10T02:38:14.020Z,-8.45
2024-01-10T02:43:15.770Z,-7.50
2024-01-10T02:48:17.521Z,-7.55
2024-01-10T02:53:19.407Z,-7.94
2024-01-10T02:58:22.419Z,-7.79
2024-01-10T03:03:24.075Z,-7.93
2024-01-10T03:08:25.700Z,-7.98
2024-01-10T03:13:27.368Z,-7.92
2024-01-10T03:18:29.105Z,-8.09
2024-01-10T03:23:30.799Z,-8.04
2024-01-10T03:28:32.444Z,-8.10
2024-01-10T03:33:34.288Z,-7.98
2024-01-10T03:38:35.978Z,-7.82
2024-01-10T03:43:37.615Z,-7.90
2024-01-10T03:48:43.766Z,-8.02
2024-01-10T03:53:50.247Z,-8.13
2024-01-10T03:58:51.955Z,-8.27
2024-01-10T04:03:53.705Z,-7.99
2024-01-10T04:08:55.489Z,-8.43
2024-01-10T04:13:57.240Z,-8.43
2024-01-10T04:19:00.316Z,-8.20
2024-01-10T04:24:02.020Z,-8.32
2024-01-10T04:29:03.795Z,-8.27
2024-01-10T04:34:05.680Z,-8.54
2024-01-10T04:39:07.339Z,-8.23
2024-01-10T04:44:09.021Z,-8.25
2024-01-10T04:49:11.132Z,-8.20
2024-01-10T04:54:12.856Z,-8.16
2024-01-10T04:59:14.523Z,-8.23
2024-01-10T05:04:16.177Z,-8.14
2024-01-10T05:09:17.842Z,-8.17
2024-01-10T05:14:22.864Z,-8.25
2024-01-10T05:19:24.643Z,-8.24
2024-01-10T05:24:26.265Z,-8.03
2024-01-10T05:29:29.038Z,-8.97
2024-01-10T05:34:30.850Z,-8.11
2024-01-10T05:39:33.636Z,-8.11
2024-01-10T05:44:36.351Z,-8.06
2024-01-10T05:49:37.998Z,-8.17
2024-01-10T05:54:40.324Z,-7.80
2024-01-10T05:59:41.926Z,-7.79
2024-01-10T06:04:43.708Z,-8.06
2024-01-10T06:09:45.294Z,-8.20
2024-01-10T06:14:47.517Z,-8.27
2024-01-10T06:19:50.818Z,-8.33
2024-01-10T06:24:52.812Z,-8.49
2024-01-10T06:29:54.968Z,-8.27
2024-01-10T06:34:56.694Z,-8.21
2024-01-10T06:39:58.298Z,-8.18
2024-01-10T06:44:59.951Z,-8.14
2024-01-10T06:50:01.806Z,-8.13
2024-01-10T06:55:05.251Z,-7.98
2024-01-10T07:00:11.992Z,-8.02
2024-01-10T07:05:13.949Z,-7.93
2024-01-10T07:10:15.760Z,-7.99
2024-01-10T07:15:17.378Z,-7.92
2024-01-10T07:20:19.059Z,-7.86
2024-01-10T07:25:23.364Z,-7.89
2024-01-10T07:30:25.343Z,-7.85
2024-01-10T07:35:27.967Z,-7.97
2024-01-10T07:40:29.638Z,-7.86
2024-01-10T07:45:31.646Z,-7.71
2024-01-10T07:50:33.358Z,-7.80
2024-01-10T07:55:34.975Z,-7.66
2024-01-10T08:00:36.598Z,-7.59
2024-01-10T08:05:38.454Z,-7.63
2024-01-10T08:10:41.129Z,-7.45
2024-01-10T08:15:42.800Z,-7.38
2024-01-10T08:20:44.494Z,-7.23
2024-01-10T08:25:46.243Z,-7.12
2024-01-10T08:30:47.944Z,-7.21
2024-01-10T08:35:49.615Z,-6.93
2024-01-10T08:40:51.392Z,-6.90
2024-01-10T08:45:53.069Z,-6.90
2024-01-10T08:50:57.197Z,-6.85
2024-01-10T08:55:59.175Z,-6.79
2024-01-10T09:01:01.000Z,-6.76
2024-01-10T09:06:08.646Z,-6.68
2024-01-10T09:11:13.376Z,-6.51
2024-01-10T09:16:15.138Z,-6.57
2024-01-10T09:21:20.890Z,-6.45
2024-01-10T09:26:22.718Z,-6.46
2024-01-10T09:31:24.335Z,-6.28
2024-01-10T09:36:25.956Z,-6.20
2024-01-10T09:41:30.059Z,-6.08
2024-01-10T09:46:34.007Z,-5.97
2024-01-10T09:51:35.727Z,-5.89
2024-01-10T09:56:37.412Z,-5.81
2024-01-10T10:01:42.240Z,-5.64
2024-01-10T10:06:44.158Z,-5.58
2024-01-10T10:11:54.528Z,-5.53
2024-01-10T10:16:56.217Z,-5.40
2024-01-10T10:22:09.510Z,-5.28
2024-01-10T10:27:12.762Z,-5.10
2024-01-10T10:32:14.574Z,-4.96
2024-01-10T10:37:16.363Z,-4.83
2024-01-10T10:42:21.510Z,-4.69
2024-01-10T10:47:25.532Z,-4.57
2024-01-10T10:52:27.580Z,-4.41
2024-01-10T10:57:30.102Z,-4.21
2024-01-10T11:02:32.428Z,-4.10
2024-01-10T11:07:37.020Z,-3.97
2024-01-10T11:12:49.041Z,-3.86
2024-01-10T11:18:13.649Z,-3.72
2024-01-10T11:23:30.655Z,-3.61
2024-01-10T11:28:32.595Z,-3.46
2024-01-10T11:33:37.677Z,-3.39
2024-01-10T11:38:55.109Z,-3.28
2024-01-10T11:44:12.180Z,-3.20
2024-01-10T11:49:16.698Z,-3.11
2024-01-10T11:54:44.005Z,-2.88
2024-01-10T11:59:46.571Z,-2.80
2024-01-10T12:04:49.310Z,-2.49
2024-01-10T12:09:51.281Z,-2.51
2024-01-10T12:14:53.049Z,-2.36
2024-01-10T12:19:54.979Z,-2.40
2024-01-10T12:24:56.643Z,-2.37
2024-01-10T12:30:03.862Z,-2.13
2024-01-10T12:35:06.265Z,-2.11
2024-01-10T12:40:11.149Z,-1.91
2024-01-10T12:45:25.618Z,-1.90
2024-01-10T12:50:27.521Z,-1.81
2024-01-10T12:55:29.697Z,-1.75
2024-01-10T13:00:36.027Z,-1.39
2024-01-10T13:05:37.849Z,-1.09
2024-01-10T13:10:40.141Z,-0.87
2024-01-10T13:15:43.535Z,-1.14
2024-01-10T13:20:46.685Z,-1.24
2024-01-10T13:25:49.589Z,-1.16
2024-01-10T13:30:52.131Z,-1.16
2024-01-10T13:35:54.387Z,-1.14
2024-01-10T13:40:56.304Z,-1.02
2024-01-10T13:45:58.092Z,-0.71
2024-01-10T13:50:59.833Z,-0.62
2024-01-10T13:56:01.476Z,-0.59
2024-01-10T14:01:03.311Z,-0.67
2024-01-10T14:06:05.389Z,-0.54
2024-01-10T14:11:07.311Z,-0.43
2024-01-10T14:16:09.007Z,-0.43
2024-01-10T14:21:11.069Z,-0.43
2024-01-10T14:26:12.984Z,-0.32
2024-01-10T14:31:22.888Z,-0.16
2024-01-10T14:36:31.411Z,-0.09
2024-01-10T14:41:33.224Z,-0.22
2024-01-10T14:46:34.994Z,-0.26
2024-01-10T14:51:36.656Z,-0.26
2024-01-10T14:56:39.890Z,-0.25
2024-01-10T15:01:46.691Z,-0.28
2024-01-10T15:06:48.611Z,-0.34
2024-01-10T15:11:51.563Z,-0.38
2024-01-10T15:16:54.735Z,-0.38
2024-01-10T15:21:57.135Z,-0.38
2024-01-10T15:27:03.385Z,-0.45
2024-01-10T15:32:06.110Z,-0.40
2024-01-10T15:37:08.033Z,-0.52
2024-01-10T15:42:12.669Z,-0.50
2024-01-10T15:47:14.299Z,-0.51
2024-01-10T15:52:16.031Z,-0.56
2024-01-10T15:57:18.071Z,-0.59
2024-01-10T16:02:19.705Z,-0.63
2024-01-10T16:07:24.256Z,-0.69
2024-01-10T16:12:25.895Z,-0.67
2024-01-10T16:17:27.715Z,-0.75
2024-01-10T16:22:29.439Z,-0.79
2024-01-10T16:27:31.041Z,-0.86
2024-01-10T16:32:33.122Z,-0.86
2024-01-10T16:37:34.927Z,-0.91
2024-01-10T16:42:37.030Z,-0.99
2024-01-10T16:47:38.933Z,-0.97
2024-01-10T16:52:40.702Z,-1.07
2024-01-10T16:57:42.325Z,-1.09
2024-01-10T17:02:44.049Z,-1.00
2024-01-10T17:07:45.862Z,-1.07
2024-01-10T17:12:47.608Z,-1.14
2024-01-10T17:17:49.434Z,-1.14
2024-01-10T17:22:51.743Z,-1.21
2024-01-10T17:27:53.803Z,-1.18
2024-01-10T17:32:55.546Z,-1.23
2024-01-10T17:37:57.313Z,-1.42
2024-01-10T17:43:00.298Z,-1.40
2024-01-10T17:48:02.163Z,-1.51
2024-01-10T17:53:04.773Z,-1.49
2024-01-10T17:58:06.516Z,-1.60
2024-01-10T18:03:08.396Z,-1.67
2024-01-10T18:08:10.069Z,-1.66
2024-01-10T18:13:13.460Z,-1.69
2024-01-10T18:18:16.706Z,-1.77
2024-01-10T18:23:18.438Z,-1.88
2024-01-10T18:28:20.714Z,-1.86
2024-01-10T18:33:22.502Z,-1.85
2024-01-10T18:38:24.563Z,-1.90
2024-01-10T18:43:26.682Z,-1.95
2024-01-10T18:48:28.688Z,-1.98
2024-01-10T18:53:31.430Z,-1.96
2024-01-10T18:58:33.079Z,-2.10
2024-01-10T19:03:34.696Z,-2.03
2024-01-10T19:08:36.431Z,-2.24
2024-01-10T19:13:41.362Z,-2.33
2024-01-10T19:18:43.174Z,-2.25
2024-01-10T19:23:47.301Z,-2.46
2024-01-10T19:28:49.100Z,-2.52
2024-01-10T19:33:53.057Z,-2.68
2024-01-10T19:38:55.138Z,-2.55
2024-01-10T19:43:57.053Z,-2.47
2024-01-10T19:48:58.809Z,-2.57
2024-01-10T19:54:00.504Z,-2.59
2024-01-10T19:59:02.221Z,-2.79
2024-01-10T20:04:03.982Z,-2.66
2024-01-10T20:09:05.657Z,-2.64
2024-01-10T20:14:07.874Z,-2.75
2024-01-10T20:19:10.222Z,-2.80
2024-01-10T20:24:12.663Z,-2.93
2024-01-10T20:29:14.470Z,-3.27
2024-01-10T20:34:16.945Z,-3.20
2024-01-10T20:39:18.739Z,-3.17
2024-01-10T20:44:20.400Z,-3.16
2024-01-10T20:49:22.189Z,-3.20
2024-01-10T20:54:23.897Z,-3.12
2024-01-10T20:59:25.609Z,-3.13
2024-01-10T21:04:27.321Z,-3.39
2024-01-10T21:09:28.936Z,-3.54
2024-01-10T21:14:30.734Z,-3.47
2024-01-10T21:19:32.420Z,-3.27
2024-01-10T21:24:35.012Z,-3.55
2024-01-10T21:29:36.992Z,-3.87
2024-01-10T21:34:38.769Z,-3.98
2024-01-10T21:39:40.468Z,-3.70
2024-01-10T21:44:43.457Z,-3.79
2024-01-10T21:49:45.265Z,-3.97
2024-01-10T21:54:46.944Z,-4.13
2024-01-10T21:59:48.867Z,-4.00
2024-01-10T22:04:50.628Z,-4.08
2024-01-10T22:09:52.274Z,-3.91
2024-01-10T22:14:54.049Z,-4.04
2024-01-10T22:19:55.676Z,-3.85
2024-01-10T22:24:57.867Z,-4.03
2024-01-10T22:29:59.925Z,-3.98
2024-01-10T22:35:01.534Z,-4.15
2024-01-10T22:40:03.250Z,-4.04
2024-01-10T22:45:08.735Z,-4.32
2024-01-10T22:50:12.208Z,-4.04
2024-01-10T22:55:14.061Z,-4.24
2024-01-10T23:00:15.950Z,-4.26
2024-01-10T23:05:17.753Z,-4.39
2024-01-10T23:10:19.660Z,-4.23
2024-01-10T23:15:21.332Z,-4.21
2024-01-10T23:20:23.031Z,-4.24
2024-01-10T23:25:24.777Z,-4.30
2024-01-10T23:30:26.501Z,-4.30
2024-01-10T23:35:37.004Z,-4.30
2024-01-10T23:40:46.941Z,-4.35
2024-01-10T23:45:48.614Z,-4.46
2024-01-10T23:50:50.581Z,-4.60
2024-01-10T23:55:52.722Z,-4.41
